सभी
Hooker Creek Airport (Hooker Creek, Northern Territory) HOK मौसम
|
Hooker Creek, Northern Territory (HOK / YHOO)
स्वच्छ आकाश
हल्की हवाएं |
|
24 °C |
HOK Terminal Area Forecast
| Date | Time (ACST) | Flight Rules | Wind Dir. | Speed | Type | Height AGL (ft) | Visibility | Remarks | ||||||
|---|---|---|---|---|---|---|---|---|---|---|---|---|---|---|
Recent HOK METAR history
| Date | Time (ACST) | Flight Rules | Wind Dir. | Speed | Type | Height AGL (ft) | Visibility | Temp (°C) | Temp (°F) | Dew Point (°C) | Dew Point (°F) | Rel. Humid. | Pressure | Density Altitude | Remarks |
|---|---|---|---|---|---|---|---|---|---|---|---|---|---|---|---|
| 03-मई | 05:30 | n/a | 40° | 6 kt | Missing | 24° | 75° | 17° | 62° | 65% | 1012 mb | 2,390 ft | |||
| 03-मई | 04:30 | n/a | 40° | 5 kt | Missing | 23° | 73° | 17° | 62° | 69% | 1012 mb | 2,270 ft | |||
| 03-मई | 03:30 | n/a | 40° | 6 kt | Missing | 24° | 75° | 17° | 62° | 65% | 1012 mb | 2,390 ft | |||
| 03-मई | 02:30 | n/a | 80° | 1 kt | Missing | 21° | 69° | 17° | 62° | 78% | 1013 mb | 2,001 ft | |||
| 03-मई | 01:30 | n/a | Calm | Missing | 21° | 69° | 18° | 64° | 83% | 1013 mb | 2,001 ft | ||||
| 03-मई | 00:30 | n/a | Calm | Missing | 22° | 71° | 17° | 62° | 73% | 1013 mb | 2,121 ft | ||||
| 02-मई | 23:30 | n/a | 90° | 4 kt | Missing | 23° | 73° | 17° | 62° | 69% | 1013 mb | 2,241 ft | |||
| 02-मई | 22:30 | n/a | 90° | 4 kt | Missing | 25° | 77° | 17° | 62° | 61% | 1013 mb | 2,481 ft | |||
| 02-मई | 21:30 | n/a | 60° | 6 kt | Missing | 26° | 78° | 17° | 62° | 58% | 1013 mb | 2,601 ft | |||
| 02-मई | 20:30 | n/a | 100° | 4 kt | Missing | 26° | 78° | 17° | 62° | 58% | 1013 mb | 2,601 ft | |||
| 02-मई | 19:30 | n/a | Calm | Missing | 27° | 80° | 16° | 60° | 51% | 1012 mb | 2,750 ft | ||||
| 02-मई | 18:30 | n/a | Calm | Missing | 30° | 86° | 17° | 62° | 46% | 1011 mb | 3,140 ft | ||||
| 02-मई | 17:30 | n/a | 190° | 1 kt | Missing | 32° | 89° | 15° | 59° | 36% | 1011 mb | 3,380 ft | |||
| 02-मई | 16:30 | n/a | 230° | 3 kt | Missing | 32° | 89° | 16° | 60° | 38% | 1011 mb | 3,380 ft | |||
| 02-मई | 15:30 | n/a | 230° | 6 kt | Missing | 33° | 91° | 15° | 59° | 34% | 1011 mb | 3,500 ft | |||
| 02-मई | 14:30 | n/a | 100° | 7 kt | Missing | 33° | 91° | 16° | 60° | 36% | 1011 mb | 3,500 ft | |||
| 02-मई | 13:30 | n/a | 40° | 4 kt | Missing | 32° | 89° | 16° | 60° | 38% | 1012 mb | 3,350 ft | |||
| 02-मई | 12:30 | n/a | 90° | 4 kt | Missing | 32° | 89° | 18° | 64° | 43% | 1013 mb | 3,321 ft | |||
| 02-मई | 11:30 | n/a | 80° | 6 kt | Missing | 30° | 86° | 17° | 62° | 46% | 1014 mb | 3,051 ft | |||
| 02-मई | 10:30 | n/a | 360° | 6 kt | Missing | 29° | 84° | 18° | 64° | 52% | 1015 mb | 2,902 ft | |||
| 02-मई | 09:30 | n/a | 40° | 6 kt | Missing | 27° | 80° | 18° | 64° | 58% | 1015 mb | 2,662 ft | |||
| 02-मई | 08:30 | n/a | Calm | Missing | 22° | 71° | 16° | 60° | 69% | 1015 mb | 2,062 ft | ||||
| 02-मई | 07:30 | n/a | 350° | 3 kt | Missing | 19° | 66° | 16° | 60° | 83% | 1014 mb | 1,731 ft | |||
| 02-मई | 06:30 | n/a | Calm | Missing | 18° | 64° | 16° | 60° | 88% | 1014 mb | 1,611 ft |
लॉगिन
| Your browser is unsupported. अपना ब्राऊजर अपग्रेड करें |
